Time;durP1;ratioP1;P1;durP2;ratioP2;P2;SDS_P1;SDS_P2;PMS_P1;PMS_P2;Temp;Humidity;BMP_temperature;BMP_pressure;BME280_temperature;BME280_humidity;BME280_pressure;Samples;Min_cycle;Max_cycle;Signal;HPM_P1;HPM_P2
2023/04/30 00:00:08;;;;;;;9.60;4.60;;;;;;;10.69;48.34;100483.70;105672;1257;76028;-47
2023/04/30 00:02:38;;;;;;;10.20;4.70;;;;;;;10.67;48.31;100483.47;105930;1251;63747;-47
2023/04/30 00:05:05;;;;;;;10.70;4.90;;;;;;;10.65;48.39;100482.40;108294;1254;66279;-47
2023/04/30 00:07:32;;;;;;;10.80;4.80;;;;;;;10.60;48.55;100479.05;104803;1258;60578;-47
2023/04/30 00:09:59;;;;;;;8.60;4.90;;;;;;;10.55;48.81;100476.86;104917;1253;60772;-47
2023/04/30 00:12:26;;;;;;;8.80;5.30;;;;;;;10.48;48.90;100476.66;104925;1257;67305;-47
2023/04/30 00:14:55;;;;;;;9.50;4.60;;;;;;;10.43;49.08;100474.97;104769;1254;63763;-47
2023/04/30 00:17:22;;;;;;;8.70;4.70;;;;;;;10.38;49.09;100474.66;104968;1254;66109;-47
2023/04/30 00:19:49;;;;;;;10.00;5.20;;;;;;;10.34;49.24;100476.02;107804;1253;60647;-47
2023/04/30 00:22:16;;;;;;;14.30;5.30;;;;;;;10.32;49.28;100470.54;104942;1253;60443;-46
2023/04/30 00:24:43;;;;;;;9.20;4.90;;;;;;;10.33;49.37;100468.59;104994;1259;67556;-47
2023/04/30 00:27:10;;;;;;;7.90;5.10;;;;;;;10.30;49.57;100469.27;104869;1251;63560;-47
2023/04/30 00:29:37;;;;;;;9.30;4.80;;;;;;;10.27;49.81;100463.59;104849;1254;66200;-47
2023/04/30 00:32:05;;;;;;;11.20;5.10;;;;;;;10.23;49.86;100460.51;108320;1257;59748;-47
2023/04/30 00:34:32;;;;;;;9.50;4.70;;;;;;;10.22;49.91;100456.73;106635;1254;60640;-47
2023/04/30 00:36:59;;;;;;;12.20;5.70;;;;;;;10.24;50.00;100453.77;104835;1259;74783;-47
2023/04/30 00:39:25;;;;;;;8.90;4.60;;;;;;;10.24;50.01;100446.96;104946;1256;63774;-47
2023/04/30 00:41:52;;;;;;;10.70;4.90;;;;;;;10.21;50.01;100443.85;105148;1254;66235;-47
2023/04/30 00:44:19;;;;;;;8.70;5.20;;;;;;;10.21;49.97;100441.20;104888;1251;60440;-47
2023/04/30 00:46:46;;;;;;;13.80;5.60;;;;;;;10.24;49.92;100440.14;104907;1254;61147;-47
2023/04/30 00:49:14;;;;;;;9.10;5.00;;;;;;;10.26;49.75;100437.55;104831;1254;76667;-47
2023/04/30 00:51:41;;;;;;;8.00;4.50;;;;;;;10.25;49.77;100435.29;104792;1260;64284;-46
2023/04/30 00:54:07;;;;;;;10.90;4.80;;;;;;;10.24;49.74;100434.31;105515;1257;66834;-47
2023/04/30 00:56:35;;;;;;;9.40;4.60;;;;;;;10.23;49.70;100438.07;104850;1251;60507;-47
2023/04/30 00:59:02;;;;;;;11.30;4.60;;;;;;;10.21;49.26;100439.09;104961;1251;60555;-51
2023/04/30 01:01:29;;;;;;;10.50;4.80;;;;;;;10.21;49.26;100440.00;105823;1251;65943;-47
2023/04/30 01:03:56;;;;;;;9.60;4.90;;;;;;;10.19;49.65;100441.23;104627;1263;62688;-48
2023/04/30 01:06:24;;;;;;;11.60;4.90;;;;;;;10.16;48.89;100437.18;104850;1257;66285;-47
2023/04/30 01:08:52;;;;;;;8.20;4.20;;;;;;;10.18;47.93;100432.50;106820;1257;60536;-47
2023/04/30 01:11:40;;;;;;;7.70;4.50;;;;;;;10.21;47.57;100429.30;108891;1254;59472;-47
2023/04/30 01:14:30;;;;;;;9.10;4.40;;;;;;;10.24;47.19;100425.08;105556;1259;67588;-47
2023/04/30 01:17:10;;;;;;;6.90;4.10;;;;;;;10.25;47.20;100427.95;107672;1251;64460;-49
2023/04/30 01:19:42;;;;;;;8.20;4.80;;;;;;;10.26;47.13;100430.16;104700;1254;65968;-47
2023/04/30 01:22:13;;;;;;;10.70;4.60;;;;;;;10.26;47.15;100426.51;108206;1253;60574;-47
2023/04/30 01:24:56;;;;;;;8.10;4.20;;;;;;;10.27;47.23;100423.11;104831;1257;61229;-47
2023/04/30 01:27:31;;;;;;;11.10;4.70;;;;;;;10.27;47.09;100426.06;104999;1254;67248;-47
2023/04/30 01:29:58;;;;;;;7.50;4.20;;;;;;;10.26;47.05;100423.48;105838;1257;63208;-47
2023/04/30 01:32:25;;;;;;;8.50;4.70;;;;;;;10.25;47.07;100424.97;104825;1263;66474;-49
2023/04/30 01:34:52;;;;;;;11.00;4.30;;;;;;;10.23;46.98;100420.75;104794;1256;60562;-49
2023/04/30 01:37:42;;;;;;;8.80;4.20;;;;;;;10.21;46.86;100415.98;104861;1254;61064;-47
2023/04/30 01:40:21;;;;;;;10.20;4.70;;;;;;;10.18;46.86;100414.12;104859;1259;66265;-47
2023/04/30 01:43:04;;;;;;;7.20;4.50;;;;;;;10.14;46.95;100411.79;105408;1254;63580;-47
2023/04/30 01:46:07;;;;;;;8.40;4.30;;;;;;;10.13;46.95;100406.96;104741;1254;67370;-46
2023/04/30 01:48:56;;;;;;;6.60;3.70;;;;;;;10.11;47.34;100404.27;107275;1254;62817;-48
2023/04/30 01:51:26;;;;;;;10.10;4.80;;;;;;;10.09;47.38;100404.50;104896;1254;60425;-47
2023/04/30 01:53:56;;;;;;;8.10;3.80;;;;;;;10.05;47.24;100404.24;104847;1254;67447;-47
2023/04/30 01:56:37;;;;;;;8.40;3.90;;;;;;;10.01;47.22;100403.14;105785;1254;63822;-48
2023/04/30 01:59:04;;;;;;;9.70;4.20;;;;;;;9.98;47.46;100397.23;104713;1256;65818;-48
2023/04/30 02:01:31;;;;;;;7.40;4.00;;;;;;;9.95;47.53;100394.84;104683;1254;60455;-48
2023/04/30 02:03:59;;;;;;;7.60;3.90;;;;;;;9.93;47.63;100394.66;104895;1254;59568;-49
2023/04/30 02:06:27;;;;;;;8.30;4.30;;;;;;;9.90;47.62;100396.13;104642;1260;66962;-48
2023/04/30 02:09:02;;;;;;;8.40;4.30;;;;;;;9.87;47.76;100393.71;105947;1256;63639;-46
2023/04/30 02:11:29;;;;;;;8.10;4.20;;;;;;;9.85;47.89;100393.88;109077;1253;66465;-47
2023/04/30 02:13:56;;;;;;;7.80;3.70;;;;;;;9.83;47.92;100394.70;104932;1260;61360;-46
2023/04/30 02:16:23;;;;;;;9.20;4.60;;;;;;;9.82;48.11;100393.40;104840;1253;61496;-47
2023/04/30 02:18:50;;;;;;;9.60;4.50;;;;;;;9.80;48.02;100391.62;104846;1254;66252;-53
2023/04/30 02:21:17;;;;;;;8.40;3.90;;;;;;;9.78;47.92;100394.02;104708;1260;62683;-47
2023/04/30 02:23:44;;;;;;;7.70;4.20;;;;;;;9.77;48.09;100388.02;104827;1254;65946;-47
2023/04/30 02:26:11;;;;;;;8.00;4.30;;;;;;;9.75;48.26;100389.68;104724;1257;60986;-48
2023/04/30 02:28:38;;;;;;;6.90;3.60;;;;;;;9.74;48.44;100387.89;104678;1253;60447;-46
2023/04/30 02:31:05;;;;;;;9.90;4.60;;;;;;;9.73;48.62;100385.52;104725;1254;66191;-46
2023/04/30 02:33:32;;;;;;;8.00;4.10;;;;;;;9.70;48.94;100382.55;105696;1254;64814;-47
2023/04/30 02:36:00;;;;;;;7.00;4.00;;;;;;;9.68;49.05;100382.91;104797;1260;66606;-48
2023/04/30 02:38:27;;;;;;;6.40;3.60;;;;;;;9.66;49.30;100384.41;104770;1259;60449;-48
2023/04/30 02:40:54;;;;;;;9.20;4.30;;;;;;;9.66;49.49;100382.03;104876;1254;60539;-49
2023/04/30 02:43:21;;;;;;;7.40;4.20;;;;;;;9.65;49.46;100384.55;104678;1264;67318;-47
2023/04/30 02:45:47;;;;;;;7.30;3.70;;;;;;;9.65;49.51;100382.44;104614;1258;70752;-46
2023/04/30 02:48:14;;;;;;;8.20;3.70;;;;;;;9.64;49.47;100381.26;104801;1260;66199;-45
2023/04/30 02:50:41;;;;;;;8.30;4.10;;;;;;;9.63;49.40;100379.04;104799;1260;60572;-47
2023/04/30 02:53:08;;;;;;;7.30;3.80;;;;;;;9.63;49.61;100378.20;104720;1260;60451;-47
2023/04/30 02:55:35;;;;;;;7.00;3.90;;;;;;;9.64;49.50;100375.84;104619;1254;66235;-47
2023/04/30 02:58:03;;;;;;;8.20;3.90;;;;;;;9.64;49.31;100372.34;104806;1254;63764;-48
2023/04/30 03:00:30;;;;;;;8.70;4.10;;;;;;;9.64;49.39;100369.92;104581;1257;66375;-48
2023/04/30 03:02:57;;;;;;;7.90;3.90;;;;;;;9.64;49.41;100368.84;108530;1253;60584;-48
2023/04/30 03:05:24;;;;;;;8.60;3.90;;;;;;;9.63;49.54;100365.97;106063;1254;538508;-48
2023/04/30 03:20:10;;;;;;;7.60;3.80;;;;;;;9.77;49.55;100368.23;105674;1261;603935;-46
2023/04/30 03:22:37;;;;;;;7.50;3.50;;;;;;;10.08;48.53;100365.29;107111;1251;194034;-53
2023/04/30 03:25:04;;;;;;;8.50;3.50;;;;;;;10.04;48.51;100364.16;110466;1246;58823;-46
2023/04/30 03:27:31;;;;;;;8.90;3.30;;;;;;;10.00;48.48;100361.02;109484;1245;64809;-47
2023/04/30 03:29:57;;;;;;;7.20;3.60;;;;;;;9.94;48.43;100360.23;106846;1247;62193;-48
2023/04/30 03:32:24;;;;;;;8.10;3.20;;;;;;;9.90;48.83;100363.39;109601;1247;65117;-48
2023/04/30 03:34:51;;;;;;;6.10;3.20;;;;;;;9.85;49.05;100357.63;107076;1245;59360;-46
2023/04/30 03:37:18;;;;;;;6.60;3.00;;;;;;;9.81;48.95;100357.88;108198;1247;59373;-47
2023/04/30 03:39:45;;;;;;;6.30;3.20;;;;;;;9.79;49.12;100358.44;106791;1245;64632;-47
2023/04/30 03:42:11;;;;;;;7.30;3.50;;;;;;;9.76;49.33;100359.52;106816;1247;62561;-47
2023/04/30 03:44:38;;;;;;;7.20;3.80;;;;;;;9.75;49.44;100359.24;106774;1245;65114;-47
2023/04/30 03:47:05;;;;;;;7.20;3.30;;;;;;;9.73;49.65;100364.15;107603;1247;59518;-47
2023/04/30 03:49:32;;;;;;;8.10;3.60;;;;;;;9.72;49.63;100367.06;106838;1245;59776;-46
2023/04/30 03:51:59;;;;;;;6.40;3.00;;;;;;;9.70;49.55;100368.20;109579;1247;65169;-47
2023/04/30 03:54:27;;;;;;;6.70;4.00;;;;;;;9.68;49.70;100370.10;107457;1242;62532;-46
2023/04/30 03:56:54;;;;;;;6.20;3.00;;;;;;;9.69;49.67;100373.39;107344;1241;64888;-46
2023/04/30 03:59:22;;;;;;;5.90;3.10;;;;;;;9.68;49.52;100370.27;107672;1235;59654;-46
2023/04/30 04:01:50;;;;;;;8.70;3.10;;;;;;;9.68;49.83;100366.78;107443;1241;59518;-47
2023/04/30 04:04:17;;;;;;;6.40;3.50;;;;;;;9.68;50.09;100363.64;107331;1241;65958;-47
2023/04/30 04:06:43;;;;;;;9.20;3.90;;;;;;;9.68;50.34;100366.75;107516;1245;62591;-47
2023/04/30 04:09:10;;;;;;;6.00;2.80;;;;;;;9.70;50.51;100367.85;108064;1240;65238;-47
2023/04/30 04:11:40;;;;;;;8.00;3.70;;;;;;;9.73;50.43;100367.85;107402;1240;59559;-47
2023/04/30 04:14:06;;;;;;;5.90;2.80;;;;;;;9.75;50.25;100368.35;108258;1240;59665;-47
2023/04/30 04:16:33;;;;;;;6.40;3.10;;;;;;;9.78;50.18;100369.19;107480;1239;65421;-46
2023/04/30 04:19:00;;;;;;;7.90;3.60;;;;;;;9.80;50.31;100364.27;108341;1240;62473;-45
2023/04/30 04:21:28;;;;;;;7.30;3.30;;;;;;;9.83;50.24;100362.98;107516;1241;64906;-46
2023/04/30 04:23:54;;;;;;;6.60;2.90;;;;;;;9.87;50.41;100360.10;107326;1241;59515;-47
2023/04/30 04:26:24;;;;;;;6.20;2.60;;;;;;;9.91;50.27;100357.55;107352;1241;59537;-47
2023/04/30 04:28:51;;;;;;;9.50;3.40;;;;;;;9.93;50.15;100354.36;109538;1235;66260;-47
2023/04/30 04:31:19;;;;;;;7.70;3.30;;;;;;;9.97;50.37;100354.89;107837;1238;62452;-47
2023/04/30 04:33:46;;;;;;;5.40;2.50;;;;;;;10.02;50.14;100358.75;107948;1239;64613;-47
2023/04/30 04:36:12;;;;;;;7.20;3.00;;;;;;;10.05;50.20;100359.19;107387;1240;59608;-48
2023/04/30 04:38:39;;;;;;;6.10;2.40;;;;;;;10.10;50.18;100356.75;107453;1235;59713;-47
2023/04/30 04:41:06;;;;;;;6.50;3.00;;;;;;;10.15;50.15;100359.30;107503;1240;65022;-46
2023/04/30 04:43:33;;;;;;;7.50;2.90;;;;;;;10.20;50.23;100357.66;108136;1235;62929;-47
2023/04/30 04:46:00;;;;;;;5.50;2.80;;;;;;;10.24;50.11;100356.46;107629;1244;65443;-48
2023/04/30 04:48:27;;;;;;;6.70;2.50;;;;;;;10.29;50.27;100355.92;108166;1239;59648;-48
2023/04/30 04:50:55;;;;;;;6.30;2.70;;;;;;;10.34;50.34;100356.80;108978;1239;59239;-48
2023/04/30 04:53:23;;;;;;;9.10;2.80;;;;;;;10.39;50.12;100358.52;109008;1240;65267;-47
2023/04/30 04:55:49;;;;;;;7.40;2.80;;;;;;;10.46;49.98;100355.84;108302;1241;62489;-48
2023/04/30 04:58:16;;;;;;;8.00;2.90;;;;;;;10.53;49.48;100353.34;109929;1239;64650;-45
2023/04/30 05:00:44;;;;;;;5.70;2.50;;;;;;;10.60;49.06;100348.06;107925;1235;59514;-48
2023/04/30 05:03:13;;;;;;;4.80;2.30;;;;;;;10.66;48.70;100352.30;107999;1237;59727;-48
2023/04/30 05:05:40;;;;;;;6.60;2.50;;;;;;;10.73;49.07;100353.34;110725;1240;73741;-46
2023/04/30 05:08:07;;;;;;;5.60;2.40;;;;;;;10.80;48.60;100348.23;111099;1240;62667;-49
2023/04/30 05:10:33;;;;;;;5.40;2.60;;;;;;;10.86;48.08;100345.79;110049;1232;64845;-46
2023/04/30 05:13:00;;;;;;;5.70;2.70;;;;;;;10.92;48.17;100343.70;108602;1237;59546;-47
2023/04/30 05:15:27;;;;;;;6.80;2.30;;;;;;;10.97;48.02;100345.25;109353;1235;59566;-49
2023/04/30 05:17:54;;;;;;;5.30;2.50;;;;;;;11.02;47.33;100345.73;109314;1235;64103;-47
2023/04/30 05:20:21;;;;;;;4.90;2.20;;;;;;;11.05;46.94;100348.10;108687;1238;64145;-47
2023/04/30 05:22:48;;;;;;;5.10;2.10;;;;;;;11.09;46.20;100350.02;108375;1243;63656;-47
2023/04/30 05:25:15;;;;;;;6.00;2.70;;;;;;;11.14;46.11;100347.30;108388;1235;59712;-49
2023/04/30 05:27:42;;;;;;;4.30;1.90;;;;;;;11.21;45.84;100341.89;111244;1232;59374;-48
2023/04/30 05:30:09;;;;;;;4.80;2.20;;;;;;;11.26;45.49;100343.02;109293;1232;65471;-45
2023/04/30 05:32:36;;;;;;;5.30;2.40;;;;;;;11.30;44.85;100339.70;107757;1236;62559;-45
2023/04/30 05:35:03;;;;;;;4.40;1.80;;;;;;;11.33;45.04;100334.31;107812;1232;64780;-45
2023/04/30 05:37:30;;;;;;;5.50;2.10;;;;;;;11.37;45.41;100328.38;109336;1235;59539;-45
2023/04/30 05:39:57;;;;;;;6.40;2.30;;;;;;;11.41;44.42;100327.05;108370;1236;59613;-45
2023/04/30 05:42:24;;;;;;;6.10;2.70;;;;;;;11.39;44.27;100326.17;109793;1238;65272;-45
2023/04/30 05:44:51;;;;;;;6.40;2.40;;;;;;;11.39;43.89;100323.29;107739;1237;61967;-45
2023/04/30 05:47:18;;;;;;;6.10;2.10;;;;;;;11.41;43.90;100322.62;110848;1231;64908;-47
2023/04/30 05:49:44;;;;;;;5.40;2.30;;;;;;;11.44;43.70;100324.80;108427;1242;59651;-46
2023/04/30 05:52:13;;;;;;;5.70;2.00;;;;;;;11.48;43.84;100325.52;108435;1232;60379;-46
2023/04/30 05:54:39;;;;;;;4.30;1.90;;;;;;;11.50;42.46;100323.09;109783;1232;63953;-47
2023/04/30 05:57:06;;;;;;;4.90;1.80;;;;;;;11.52;41.90;100324.09;109422;1235;61547;-46
2023/04/30 05:59:33;;;;;;;8.00;1.90;;;;;;;11.55;42.25;100320.36;108400;1235;64779;-46
2023/04/30 06:02:00;;;;;;;5.60;2.10;;;;;;;11.56;41.37;100311.70;107921;1232;59751;-46
2023/04/30 06:04:27;;;;;;;5.40;2.20;;;;;;;11.55;40.59;100311.64;107892;1231;59986;-49
2023/04/30 06:06:54;;;;;;;6.50;1.90;;;;;;;11.54;40.98;100313.42;107888;1232;64055;-47
2023/04/30 06:09:20;;;;;;;5.20;2.30;;;;;;;11.53;40.42;100311.56;108064;1238;61591;-47
2023/04/30 06:11:49;;;;;;;6.10;1.90;;;;;;;11.55;40.33;100308.46;107880;1232;64901;-48
2023/04/30 06:14:17;;;;;;;5.00;2.00;;;;;;;11.56;39.75;100302.91;108278;1243;59652;-47
2023/04/30 06:16:44;;;;;;;4.40;2.00;;;;;;;11.60;40.17;100301.01;109331;1235;59735;-47
2023/04/30 06:19:11;;;;;;;4.60;1.50;;;;;;;11.62;39.60;100300.59;109461;1232;64975;-52
2023/04/30 06:21:39;;;;;;;5.30;1.70;;;;;;;11.65;38.83;100300.69;111117;1235;61483;-47
2023/04/30 06:24:05;;;;;;;3.90;1.30;;;;;;;11.67;38.54;100297.37;108036;1231;64930;-46
2023/04/30 06:26:32;;;;;;;6.10;1.70;;;;;;;11.70;39.05;100299.55;107823;1232;59530;-46
2023/04/30 06:28:59;;;;;;;4.20;1.70;;;;;;;11.75;39.11;100297.23;107741;1237;59390;-46
2023/04/30 06:31:26;;;;;;;6.10;1.80;;;;;;;11.81;38.72;100295.73;112138;1235;65649;-46
2023/04/30 06:33:53;;;;;;;4.30;1.50;;;;;;;11.85;38.14;100291.14;112160;1231;62304;-46
2023/04/30 06:36:20;;;;;;;4.60;1.40;;;;;;;11.88;36.85;100286.08;112051;1235;63577;-46
2023/04/30 06:38:47;;;;;;;4.80;1.40;;;;;;;11.93;36.93;100287.80;112074;1231;57902;-47
2023/04/30 06:41:15;;;;;;;5.20;1.60;;;;;;;11.99;36.84;100284.69;108301;1231;59652;-47
2023/04/30 06:43:44;;;;;;;6.30;1.50;;;;;;;12.04;36.41;100282.80;111108;1231;64674;-47
2023/04/30 06:46:11;;;;;;;6.40;1.40;;;;;;;12.06;35.70;100279.58;110188;1237;62740;-46
2023/04/30 06:48:38;;;;;;;4.40;1.80;;;;;;;12.10;35.51;100278.92;108566;1236;64892;-47
2023/04/30 06:51:05;;;;;;;4.40;1.90;;;;;;;12.15;35.97;100278.17;108018;1232;59543;-47
2023/04/30 06:53:32;;;;;;;4.80;1.40;;;;;;;12.18;36.28;100275.45;112071;1235;57515;-45
2023/04/30 06:55:59;;;;;;;7.40;2.30;;;;;;;12.18;35.22;100269.44;109776;1236;65395;-46
2023/04/30 06:58:26;;;;;;;5.20;2.30;;;;;;;12.20;35.78;100266.58;108992;1232;62425;-48
2023/04/30 07:00:52;;;;;;;5.30;2.40;;;;;;;12.22;35.96;100265.36;107821;1231;65142;-45
2023/04/30 07:03:20;;;;;;;5.50;2.20;;;;;;;12.25;36.60;100266.14;108103;1232;59563;-46
2023/04/30 07:05:47;;;;;;;7.00;2.30;;;;;;;12.26;35.25;100258.52;107882;1231;59722;-45
2023/04/30 07:08:14;;;;;;;5.40;2.20;;;;;;;12.26;34.86;100256.94;108192;1232;63824;-47
2023/04/30 07:10:40;;;;;;;6.20;2.50;;;;;;;12.27;35.47;100256.88;108535;1235;62760;-47
2023/04/30 07:13:07;;;;;;;4.00;1.50;;;;;;;12.30;35.23;100249.45;110420;1231;64917;-47
2023/04/30 07:15:34;;;;;;;3.80;1.50;;;;;;;12.32;34.80;100249.07;107792;1237;59859;-45
2023/04/30 07:18:02;;;;;;;5.00;1.60;;;;;;;12.33;35.29;100240.83;107806;1232;59559;-46
2023/04/30 07:20:29;;;;;;;4.60;1.80;;;;;;;12.36;35.39;100239.75;107806;1231;65134;-46
2023/04/30 07:22:56;;;;;;;7.00;1.90;;;;;;;12.38;35.79;100241.62;107804;1232;62495;-46
2023/04/30 07:25:23;;;;;;;5.30;1.90;;;;;;;12.40;35.36;100234.59;107816;1235;64975;-46
2023/04/30 07:27:51;;;;;;;5.70;1.70;;;;;;;12.42;35.12;100236.80;107770;1237;60455;-46
2023/04/30 07:30:18;;;;;;;4.10;1.40;;;;;;;12.43;34.90;100235.92;107862;1231;60459;-49
2023/04/30 07:32:46;;;;;;;4.30;1.70;;;;;;;12.44;34.92;100232.45;107890;1236;66052;-45
2023/04/30 07:35:13;;;;;;;4.90;1.40;;;;;;;12.46;34.47;100228.29;108528;1235;61388;-45
2023/04/30 07:37:40;;;;;;;4.40;1.30;;;;;;;12.48;34.34;100225.14;107856;1231;64811;-47
2023/04/30 07:40:11;;;;;;;5.70;1.60;;;;;;;12.49;34.52;100229.91;109396;1232;60547;-47
2023/04/30 07:42:46;;;;;;;4.80;1.50;;;;;;;12.54;35.09;100230.36;108288;1240;60462;-46
2023/04/30 07:45:12;;;;;;;4.60;1.40;;;;;;;12.58;34.46;100227.12;107734;1235;66328;-48
2023/04/30 07:47:39;;;;;;;4.50;1.40;;;;;;;12.61;33.95;100223.00;107719;1232;62200;-46
2023/04/30 07:50:06;;;;;;;4.50;1.40;;;;;;;12.63;33.68;100221.42;107782;1232;64902;-47
2023/04/30 07:52:33;;;;;;;3.40;1.30;;;;;;;12.61;32.79;100220.73;108578;1236;60330;-46
2023/04/30 07:55:00;;;;;;;3.70;1.30;;;;;;;12.58;32.40;100216.44;107789;1231;60595;-47
2023/04/30 07:57:27;;;;;;;5.10;1.40;;;;;;;12.58;32.93;100212.16;107808;1235;65847;-55
2023/04/30 07:59:54;;;;;;;4.60;1.40;;;;;;;12.56;32.55;100206.58;110728;1231;63123;-47
2023/04/30 08:02:22;;;;;;;4.90;1.60;;;;;;;12.54;32.32;100209.38;108161;1231;65310;-47
2023/04/30 08:04:48;;;;;;;5.50;1.30;;;;;;;12.56;32.66;100211.04;107781;1235;60825;-46
2023/04/30 08:07:15;;;;;;;4.90;1.30;;;;;;;12.56;32.75;100208.52;107703;1232;60442;-46
2023/04/30 08:09:42;;;;;;;4.20;1.40;;;;;;;12.57;33.33;100211.27;108369;1231;64773;-46
2023/04/30 08:12:09;;;;;;;4.70;1.60;;;;;;;12.57;33.97;100208.27;109334;1235;62213;-46
2023/04/30 08:14:36;;;;;;;6.00;1.40;;;;;;;12.55;33.86;100211.25;107894;1232;65158;-47
2023/04/30 08:17:03;;;;;;;4.10;1.40;;;;;;;12.55;34.11;100210.39;108440;1231;60340;-47
2023/04/30 08:19:29;;;;;;;5.60;1.20;;;;;;;12.56;34.23;100212.45;109288;1235;60868;-46
2023/04/30 08:21:57;;;;;;;5.10;1.80;;;;;;;12.57;34.38;100210.36;108454;1236;66310;-46
2023/04/30 08:24:24;;;;;;;5.30;1.50;;;;;;;12.61;35.07;100210.23;110031;1232;62381;-47
2023/04/30 08:26:51;;;;;;;4.00;1.60;;;;;;;12.64;35.78;100204.77;108429;1232;64867;-46
2023/04/30 08:29:20;;;;;;;3.90;1.40;;;;;;;12.67;34.91;100208.02;108634;1236;60538;-47
2023/04/30 08:31:47;;;;;;;10.80;2.00;;;;;;;12.70;34.79;100207.23;109266;1231;59455;-47
2023/04/30 08:34:14;;;;;;;3.80;1.60;;;;;;;12.73;35.66;100202.73;111850;1231;66136;-48
2023/04/30 08:36:41;;;;;;;8.10;2.10;;;;;;;12.76;34.92;100205.61;109451;1232;62258;-46
2023/04/30 08:39:07;;;;;;;4.10;1.50;;;;;;;12.78;34.36;100203.33;109648;1234;64814;-52
2023/04/30 08:41:34;;;;;;;4.60;1.50;;;;;;;12.83;35.04;100203.21;108640;1232;60476;-47
2023/04/30 08:44:02;;;;;;;5.50;1.80;;;;;;;12.89;34.70;100195.11;107848;1231;60538;-45
2023/04/30 08:46:31;;;;;;;6.50;1.70;;;;;;;12.93;34.11;100200.41;110643;1235;65776;-48
2023/04/30 08:48:58;;;;;;;3.90;1.40;;;;;;;13.01;34.61;100200.58;108868;1236;63296;-51
2023/04/30 08:51:25;;;;;;;4.00;1.40;;;;;;;13.12;33.91;100197.58;108146;1231;65149;-45
2023/04/30 08:53:53;;;;;;;6.40;1.80;;;;;;;13.25;33.81;100200.27;107760;1235;60714;-47
2023/04/30 08:56:20;;;;;;;4.10;1.40;;;;;;;13.34;33.35;100195.52;107692;1233;60535;-46
2023/04/30 08:58:49;;;;;;;4.20;1.20;;;;;;;13.41;33.34;100192.02;107810;1236;65797;-47
2023/04/30 09:01:16;;;;;;;5.30;1.70;;;;;;;13.52;33.95;100193.42;107846;1237;71536;-45
2023/04/30 09:03:43;;;;;;;6.30;1.50;;;;;;;13.61;33.48;100192.27;110048;1237;65273;-46
2023/04/30 09:06:14;;;;;;;5.80;1.30;;;;;;;13.68;33.26;100192.34;107823;1232;60442;-48
2023/04/30 09:08:42;;;;;;;5.30;1.60;;;;;;;13.72;31.87;100183.82;108293;1237;60459;-46
2023/04/30 09:11:29;;;;;;;5.00;1.40;;;;;;;13.78;32.58;100194.84;108409;1231;66020;-46
2023/04/30 09:13:59;;;;;;;4.60;1.50;;;;;;;13.85;32.41;100188.36;107632;1236;62834;-46
2023/04/30 09:16:29;;;;;;;4.70;1.40;;;;;;;13.88;31.37;100190.02;107704;1235;64738;-47
2023/04/30 09:18:56;;;;;;;5.30;1.30;;;;;;;13.87;31.53;100191.00;107655;1231;60394;-45
2023/04/30 09:21:35;;;;;;;3.30;1.40;;;;;;;13.86;31.75;100187.88;107678;1237;60282;-44
2023/04/30 09:24:03;;;;;;;5.20;1.30;;;;;;;13.88;32.04;100190.86;107790;1235;65813;-44
2023/04/30 09:26:37;;;;;;;5.30;1.60;;;;;;;13.90;31.32;100187.34;111422;1235;62377;-47
2023/04/30 09:29:07;;;;;;;3.60;1.20;;;;;;;13.93;30.35;100183.20;108614;1234;64882;-46
2023/04/30 09:31:41;;;;;;;4.60;1.60;;;;;;;13.93;30.71;100181.19;110561;1235;60514;-47
2023/04/30 09:34:08;;;;;;;3.80;1.30;;;;;;;13.87;29.80;100178.14;108750;1231;60452;-46
2023/04/30 09:36:35;;;;;;;5.30;1.60;;;;;;;13.84;30.35;100176.52;107996;1235;65935;-47
2023/04/30 09:39:18;;;;;;;4.70;1.50;;;;;;;13.83;30.53;100174.96;107899;1232;62541;-46
2023/04/30 09:41:45;;;;;;;3.50;1.20;;;;;;;13.84;30.80;100172.93;108456;1235;64758;-46
2023/04/30 09:44:27;;;;;;;3.50;1.10;;;;;;;13.86;30.49;100171.83;107886;1231;61315;-47
2023/04/30 09:46:56;;;;;;;4.10;1.20;;;;;;;13.87;30.52;100175.34;108323;1241;60599;-46
2023/04/30 09:49:23;;;;;;;4.10;1.20;;;;;;;13.89;30.88;100172.80;108177;1235;65948;-46
2023/04/30 09:51:58;;;;;;;5.20;1.30;;;;;;;13.91;30.50;100161.98;108479;1231;62652;-46
2023/04/30 09:54:27;;;;;;;3.50;1.10;;;;;;;13.96;30.79;100162.80;108282;1231;64744;-46
2023/04/30 09:56:56;;;;;;;8.70;1.40;;;;;;;13.99;30.26;100163.72;109825;1231;60490;-46
2023/04/30 09:59:31;;;;;;;5.60;1.10;;;;;;;14.01;29.51;100163.17;108006;1235;60323;-45
2023/04/30 10:02:00;;;;;;;5.00;1.20;;;;;;;14.01;29.05;100158.25;109854;1231;64883;-45
2023/04/30 10:04:32;;;;;;;4.20;1.10;;;;;;;14.07;29.73;100161.50;109800;1234;61445;-45
2023/04/30 10:07:01;;;;;;;3.30;1.10;;;;;;;14.16;29.60;100159.80;107964;1232;63847;-46
2023/04/30 10:09:30;;;;;;;12.10;1.50;;;;;;;14.24;29.58;100157.37;109576;1234;59296;-46
2023/04/30 10:11:57;;;;;;;4.00;0.90;;;;;;;14.30;29.48;100154.47;107933;1231;60441;-46
2023/04/30 10:14:24;;;;;;;3.90;1.00;;;;;;;14.33;29.45;100153.90;107795;1235;66097;-48
2023/04/30 10:16:56;;;;;;;4.70;1.40;;;;;;;14.36;29.75;100158.19;107750;1235;62309;-48
2023/04/30 10:19:31;;;;;;;4.30;1.10;;;;;;;14.39;30.48;100160.16;108212;1232;65877;-48
2023/04/30 10:21:58;;;;;;;5.50;1.20;;;;;;;14.43;29.52;100151.96;110724;1235;58481;-46
2023/04/30 10:24:25;;;;;;;4.60;1.60;;;;;;;14.48;30.14;100151.61;108447;1232;60456;-47
2023/04/30 10:26:52;;;;;;;4.80;1.50;;;;;;;14.53;31.21;100150.65;108326;1237;65778;-46
2023/04/30 10:29:19;;;;;;;4.40;1.30;;;;;;;14.57;30.94;100142.86;110794;1231;62315;-46
2023/04/30 10:31:47;;;;;;;4.30;1.60;;;;;;;14.56;30.74;100150.11;109571;1232;64934;-47
2023/04/30 10:34:36;;;;;;;5.80;1.30;;;;;;;14.56;31.46;100147.55;108305;1231;60547;-48
2023/04/30 10:37:26;;;;;;;7.30;1.40;;;;;;;14.56;31.02;100138.85;108296;1231;60440;-48
2023/04/30 10:39:53;;;;;;;9.20;1.60;;;;;;;14.57;30.04;100139.63;108630;1237;65115;-48
2023/04/30 10:42:20;;;;;;;5.60;1.50;;;;;;;14.57;30.13;100137.94;108048;1231;62365;-47
2023/04/30 10:44:47;;;;;;;7.20;1.60;;;;;;;14.61;30.83;100138.16;109378;1235;64830;-47
2023/04/30 10:47:15;;;;;;;4.40;1.30;;;;;;;14.65;30.19;100129.71;108379;1236;60445;-47
2023/04/30 10:49:47;;;;;;;5.60;1.40;;;;;;;14.66;29.99;100136.08;108817;1231;59016;-46
2023/04/30 10:52:14;;;;;;;6.50;1.80;;;;;;;14.73;29.89;100130.69;108978;1231;66086;-47
2023/04/30 10:54:41;;;;;;;5.80;1.50;;;;;;;14.81;30.73;100125.96;108689;1231;63035;-47
2023/04/30 10:57:13;;;;;;;5.90;1.30;;;;;;;14.89;29.82;100120.25;108014;1238;64095;-48
2023/04/30 11:00:06;;;;;;;3.30;1.20;;;;;;;14.95;29.63;100121.52;108345;1232;60515;-48
2023/04/30 11:02:44;;;;;;;3.20;1.00;;;;;;;15.00;30.04;100121.38;108111;1231;60439;-46
2023/04/30 11:05:16;;;;;;;4.30;1.30;;;;;;;15.02;30.01;100121.28;109660;1231;65858;-46
2023/04/30 11:07:48;;;;;;;6.40;1.70;;;;;;;15.03;30.19;100123.70;108923;1232;63134;-45
2023/04/30 11:10:15;;;;;;;8.20;1.30;;;;;;;14.99;29.57;100123.76;108842;1235;63726;-45
2023/04/30 11:12:49;;;;;;;4.40;1.30;;;;;;;14.99;30.41;100127.60;108309;1240;60548;-50
2023/04/30 11:15:33;;;;;;;3.90;1.50;;;;;;;14.98;30.10;100133.55;108872;1235;60653;-47
2023/04/30 11:18:00;;;;;;;3.60;1.30;;;;;;;15.01;30.62;100136.82;108378;1231;65950;-46
2023/04/30 11:20:27;;;;;;;7.10;1.30;;;;;;;15.03;29.69;100133.23;110707;1231;62411;-48
2023/04/30 11:23:10;;;;;;;3.90;1.30;;;;;;;15.03;29.69;100142.59;110806;1235;65034;-46
2023/04/30 11:25:41;;;;;;;3.40;1.30;;;;;;;15.05;29.19;100140.11;108972;1231;59334;-47
2023/04/30 11:28:12;;;;;;;4.30;1.50;;;;;;;15.05;29.31;100132.15;108978;1231;61510;-46
2023/04/30 11:30:41;;;;;;;6.00;1.30;;;;;;;15.03;29.49;100133.02;108361;1243;66196;-46
2023/04/30 11:33:08;;;;;;;4.10;1.30;;;;;;;15.05;29.89;100138.73;108437;1232;62323;-46
2023/04/30 11:35:35;;;;;;;5.70;1.60;;;;;;;15.08;30.29;100132.21;109178;1235;64972;-46
2023/04/30 11:38:02;;;;;;;6.20;1.50;;;;;;;15.06;29.43;100127.32;108392;1235;61565;-47